Time,TemperatureF,DewpointF,PressureIn,WindDirection,WindDirectionDegrees,WindSpeedMPH,WindSpeedGustMPH,Humidity,HourlyPrecipIn,Conditions,Clouds,dailyrainin,SoftwareType,DateUTC
2013-11-18 00:05:00,44.8,44.8,29.88,NNE,19,0.0,0.0,100,0.00,,,0.00,WUHU216DAVISWMX,2013-11-18 05:05:00,
2013-11-18 00:11:00,44.8,44.8,29.87,NNE,19,0.0,0.0,100,0.00,,,0.00,WUHU216DAVISWMX,2013-11-18 05:11:00,
2013-11-18 00:17:00,44.7,44.7,29.86,NNE,19,0.0,0.0,100,0.00,,,0.00,WUHU216DAVISWMX,2013-11-18 05:17:00,
2013-11-18 00:23:00,44.8,44.8,29.85,NNE,19,0.0,0.0,100,0.00,,,0.00,WUHU216DAVISWMX,2013-11-18 05:23:00,
2013-11-18 00:29:00,44.8,44.8,29.85,NNE,19,0.0,0.0,100,0.00,,,0.00,WUHU216DAVISWMX,2013-11-18 05:29:00,
2013-11-18 00:35:00,44.8,44.8,29.85,NNE,19,0.0,0.0,100,0.00,,,0.00,WUHU216DAVISWMX,2013-11-18 05:35:00,
2013-11-18 00:41:00,44.8,44.8,29.85,NNE,19,0.0,0.0,100,0.00,,,0.00,WUHU216DAVISWMX,2013-11-18 05:41:00,
2013-11-18 00:47:00,44.8,44.8,29.84,NNE,19,0.0,0.0,100,0.00,,,0.00,WUHU216DAVISWMX,2013-11-18 05:47:00,
2013-11-18 00:53:00,44.9,44.9,29.84,NNE,19,0.0,0.0,100,0.00,,,0.00,WUHU216DAVISWMX,2013-11-18 05:53:00,
2013-11-18 00:59:00,44.8,44.8,29.84,NNE,19,0.0,0.0,100,0.00,,,0.00,WUHU216DAVISWMX,2013-11-18 05:59:00,
2013-11-18 01:05:00,44.8,44.8,29.83,NNE,19,0.0,0.0,100,0.00,,,0.00,WUHU216DAVISWMX,2013-11-18 06:05:00,
2013-11-18 01:11:00,44.8,44.8,29.83,NNE,19,0.0,0.0,100,0.00,,,0.00,WUHU216DAVISWMX,2013-11-18 06:11:00,
2013-11-18 01:17:00,44.9,44.9,29.82,NNE,19,0.0,0.0,100,0.00,,,0.00,WUHU216DAVISWMX,2013-11-18 06:17:00,
2013-11-18 01:23:00,45.0,45.0,29.82,NNE,19,0.0,0.0,100,0.00,,,0.00,WUHU216DAVISWMX,2013-11-18 06:23:00,
2013-11-18 01:29:00,44.9,44.9,29.81,NNE,19,0.0,0.0,100,0.00,,,0.00,WUHU216DAVISWMX,2013-11-18 06:29:00,
2013-11-18 01:35:00,45.0,45.0,29.80,NNE,19,0.0,0.0,100,0.00,,,0.00,WUHU216DAVISWMX,2013-11-18 06:35:00,
2013-11-18 01:41:00,45.1,45.1,29.80,NNE,19,0.0,0.0,100,0.00,,,0.00,WUHU216DAVISWMX,2013-11-18 06:41:00,
2013-11-18 01:47:00,45.1,45.1,29.80,NNE,19,0.0,0.0,100,0.00,,,0.00,WUHU216DAVISWMX,2013-11-18 06:47:00,
2013-11-18 01:53:00,45.0,45.0,29.79,NNE,19,0.0,0.0,100,0.00,,,0.00,WUHU216DAVISWMX,2013-11-18 06:53:00,
2013-11-18 01:59:00,45.1,45.1,29.79,NNE,19,0.0,0.0,100,0.00,,,0.00,WUHU216DAVISWMX,2013-11-18 06:59:00,
2013-11-18 02:05:00,45.0,45.0,29.79,NNE,19,0.0,0.0,100,0.00,,,0.00,WUHU216DAVISWMX,2013-11-18 07:05:00,
2013-11-18 02:11:00,45.0,45.0,29.77,NNE,19,0.0,0.0,100,0.00,,,0.00,WUHU216DAVISWMX,2013-11-18 07:11:00,
2013-11-18 02:17:00,45.1,45.1,29.77,NNE,19,0.0,0.0,100,0.00,,,0.00,WUHU216DAVISWMX,2013-11-18 07:17:00,
2013-11-18 02:23:00,45.1,45.1,29.77,NNE,19,0.0,0.0,100,0.00,,,0.00,WUHU216DAVISWMX,2013-11-18 07:23:00,
2013-11-18 02:29:00,45.1,45.1,29.77,NNE,19,0.0,0.0,100,0.00,,,0.00,WUHU216DAVISWMX,2013-11-18 07:29:00,
2013-11-18 02:35:00,45.1,45.1,29.76,NNE,19,0.0,0.0,100,0.00,,,0.00,WUHU216DAVISWMX,2013-11-18 07:35:00,
2013-11-18 02:41:00,45.2,45.2,29.76,NNE,19,0.0,0.0,100,0.00,,,0.00,WUHU216DAVISWMX,2013-11-18 07:41:00,
2013-11-18 02:47:00,45.1,45.1,29.76,NNE,19,0.0,0.0,100,0.00,,,0.00,WUHU216DAVISWMX,2013-11-18 07:47:00,
2013-11-18 02:53:00,45.1,45.1,29.76,NNE,19,0.0,0.0,100,0.00,,,0.00,WUHU216DAVISWMX,2013-11-18 07:53:00,
2013-11-18 02:59:00,45.2,45.2,29.75,NNE,19,0.0,0.0,100,0.00,,,0.00,WUHU216DAVISWMX,2013-11-18 07:59:00,
2013-11-18 03:05:00,45.1,45.1,29.74,NNE,19,0.0,0.0,100,0.00,,,0.00,WUHU216DAVISWMX,2013-11-18 08:05:00,
2013-11-18 03:11:00,45.2,45.2,29.74,NNE,19,0.0,0.0,100,0.00,,,0.00,WUHU216DAVISWMX,2013-11-18 08:11:00,
2013-11-18 03:17:00,45.3,45.3,29.73,NNE,19,0.0,0.0,100,0.00,,,0.00,WUHU216DAVISWMX,2013-11-18 08:17:00,
2013-11-18 03:23:00,45.3,45.3,29.72,NNE,19,0.0,0.0,100,0.00,,,0.00,WUHU216DAVISWMX,2013-11-18 08:23:00,
2013-11-18 03:29:00,45.4,45.4,29.71,NNE,19,0.0,0.0,100,0.00,,,0.00,WUHU216DAVISWMX,2013-11-18 08:29:00,
2013-11-18 03:35:00,45.4,45.4,29.71,NNE,19,0.0,0.0,100,0.00,,,0.00,WUHU216DAVISWMX,2013-11-18 08:35:00,
2013-11-18 03:41:00,45.4,45.4,29.70,NNE,19,0.0,0.0,100,0.00,,,0.00,WUHU216DAVISWMX,2013-11-18 08:41:00,
2013-11-18 03:47:00,45.4,45.4,29.69,NNE,19,0.0,0.0,100,0.00,,,0.00,WUHU216DAVISWMX,2013-11-18 08:47:00,
2013-11-18 03:53:00,45.5,45.5,29.68,NNE,19,0.0,0.0,100,0.00,,,0.00,WUHU216DAVISWMX,2013-11-18 08:53:00,
2013-11-18 03:59:00,45.4,45.4,29.68,NNE,19,0.0,0.0,100,0.00,,,0.00,WUHU216DAVISWMX,2013-11-18 08:59:00,
2013-11-18 04:05:00,45.4,45.4,29.67,NNE,19,0.0,0.0,100,0.00,,,0.00,WUHU216DAVISWMX,2013-11-18 09:05:00,
2013-11-18 04:11:00,45.4,45.4,29.66,NNE,19,0.0,0.0,100,0.00,,,0.00,WUHU216DAVISWMX,2013-11-18 09:11:00,
2013-11-18 04:16:00,45.4,45.4,29.65,NNE,19,0.0,0.0,100,0.00,,,0.00,WUHU216DAVISWMX,2013-11-18 09:16:00,
2013-11-18 04:21:00,45.4,45.4,29.65,NNE,19,0.0,0.0,100,0.00,,,0.00,WUHU216DAVISWMX,2013-11-18 09:21:00,
2013-11-18 04:27:00,45.5,45.5,29.64,NNE,19,0.0,0.0,100,0.00,,,0.00,WUHU216DAVISWMX,2013-11-18 09:27:00,
2013-11-18 04:33:00,45.5,45.5,29.64,NNE,19,0.0,0.0,100,0.00,,,0.00,WUHU216DAVISWMX,2013-11-18 09:33:00,
2013-11-18 04:39:00,45.6,45.6,29.63,NNE,19,0.0,0.0,100,0.00,,,0.00,WUHU216DAVISWMX,2013-11-18 09:39:00,
2013-11-18 04:45:00,45.5,45.5,29.63,NNE,19,0.0,0.0,100,0.00,,,0.00,WUHU216DAVISWMX,2013-11-18 09:45:00,
2013-11-18 04:51:00,45.5,45.5,29.62,NNE,19,0.0,0.0,100,0.00,,,0.00,WUHU216DAVISWMX,2013-11-18 09:51:00,
2013-11-18 04:57:00,45.5,45.5,29.61,NNE,19,0.0,0.0,100,0.00,,,0.00,WUHU216DAVISWMX,2013-11-18 09:57:00,
2013-11-18 05:02:00,45.6,45.6,29.62,NNE,19,0.0,0.0,100,0.00,,,0.00,WUHU216DAVISWMX,2013-11-18 10:02:00,
2013-11-18 05:07:00,45.6,45.6,29.61,NNE,19,0.0,0.0,100,0.00,,,0.00,WUHU216DAVISWMX,2013-11-18 10:07:00,
2013-11-18 05:13:00,45.8,45.8,29.60,NNE,19,0.0,0.0,100,0.02,,,0.02,WUHU216DAVISWMX,2013-11-18 10:13:00,
2013-11-18 05:19:00,45.8,45.8,29.59,NNE,19,0.0,0.0,100,0.04,,,0.04,WUHU216DAVISWMX,2013-11-18 10:19:00,
2013-11-18 05:25:00,46.1,46.1,29.58,NNE,19,0.0,0.0,100,0.06,,,0.06,WUHU216DAVISWMX,2013-11-18 10:25:00,
2013-11-18 05:31:00,46.3,46.3,29.57,NNE,19,0.0,0.0,100,0.06,,,0.06,WUHU216DAVISWMX,2013-11-18 10:31:00,
2013-11-18 05:37:00,46.5,46.5,29.56,NNE,19,0.0,0.0,100,0.06,,,0.06,WUHU216DAVISWMX,2013-11-18 10:37:00,
2013-11-18 05:43:00,46.6,46.6,29.56,ESE,115,0.0,0.0,100,0.06,,,0.06,WUHU216DAVISWMX,2013-11-18 10:43:00,
2013-11-18 05:49:00,47.1,47.1,29.56,SSW,196,0.0,0.0,100,0.06,,,0.06,WUHU216DAVISWMX,2013-11-18 10:49:00,
2013-11-18 05:55:00,47.7,47.7,29.56,SSW,199,0.0,0.0,100,0.07,,,0.07,WUHU216DAVISWMX,2013-11-18 10:55:00,
2013-11-18 06:01:00,48.8,48.8,29.56,SSW,209,0.0,0.0,100,0.09,,,0.09,WUHU216DAVISWMX,2013-11-18 11:01:00,
2013-11-18 06:07:00,50.0,50.0,29.57,SW,228,0.0,0.0,100,0.09,,,0.10,WUHU216DAVISWMX,2013-11-18 11:07:00,
2013-11-18 06:13:00,51.1,51.1,29.57,SSW,211,0.0,0.0,100,0.09,,,0.11,WUHU216DAVISWMX,2013-11-18 11:13:00,
2013-11-18 06:19:00,52.5,52.5,29.57,ESE,118,0.0,0.0,100,0.08,,,0.12,WUHU216DAVISWMX,2013-11-18 11:19:00,
2013-11-18 06:25:00,53.8,53.8,29.57,WSW,255,0.0,0.0,100,0.06,,,0.12,WUHU216DAVISWMX,2013-11-18 11:25:00,
2013-11-18 06:31:00,54.8,54.8,29.57,WSW,254,0.0,0.0,100,0.07,,,0.13,WUHU216DAVISWMX,2013-11-18 11:31:00,
2013-11-18 06:36:00,55.7,55.7,29.59,WSW,243,0.0,0.0,100,0.07,,,0.13,WUHU216DAVISWMX,2013-11-18 11:36:00,
2013-11-18 06:41:00,56.3,56.3,29.60,WSW,238,0.0,0.0,100,0.09,,,0.15,WUHU216DAVISWMX,2013-11-18 11:41:00,
2013-11-18 06:46:00,56.5,56.5,29.59,WSW,247,0.0,1.0,100,0.10,,,0.16,WUHU216DAVISWMX,2013-11-18 11:46:00,
2013-11-18 06:52:00,56.8,56.8,29.59,WSW,243,0.0,0.0,100,0.09,,,0.16,WUHU216DAVISWMX,2013-11-18 11:52:00,
2013-11-18 06:58:00,56.7,56.7,29.59,WSW,247,0.0,0.0,100,0.07,,,0.16,WUHU216DAVISWMX,2013-11-18 11:58:00,
2013-11-18 07:04:00,56.7,56.7,29.57,ENE,76,0.0,0.0,100,0.06,,,0.16,WUHU216DAVISWMX,2013-11-18 12:04:00,
2013-11-18 07:10:00,56.8,56.8,29.57,WSW,243,0.0,0.0,100,0.05,,,0.16,WUHU216DAVISWMX,2013-11-18 12:10:00,
2013-11-18 07:16:00,56.7,56.7,29.56,SSW,197,0.0,0.0,100,0.04,,,0.16,WUHU216DAVISWMX,2013-11-18 12:16:00,
2013-11-18 07:22:00,56.7,56.7,29.57,SSW,205,0.0,0.0,100,0.04,,,0.16,WUHU216DAVISWMX,2013-11-18 12:22:00,
2013-11-18 07:28:00,56.5,56.5,29.55,SW,224,0.0,0.0,100,0.03,,,0.16,WUHU216DAVISWMX,2013-11-18 12:28:00,
2013-11-18 07:34:00,56.3,56.3,29.57,SW,228,0.0,0.0,100,0.03,,,0.16,WUHU216DAVISWMX,2013-11-18 12:34:00,
2013-11-18 07:40:00,56.1,56.1,29.57,WSW,250,0.0,0.0,100,0.01,,,0.16,WUHU216DAVISWMX,2013-11-18 12:40:00,
2013-11-18 07:45:00,55.9,55.9,29.57,WSW,246,0.0,0.0,100,0.00,,,0.16,WUHU216DAVISWMX,2013-11-18 12:45:00,
2013-11-18 07:51:00,56.0,56.0,29.58,SW,229,0.0,0.0,100,0.00,,,0.16,WUHU216DAVISWMX,2013-11-18 12:51:00,
2013-11-18 07:57:00,55.8,55.8,29.57,WSW,245,0.0,0.0,100,0.00,,,0.16,WUHU216DAVISWMX,2013-11-18 12:57:00,
2013-11-18 08:03:00,55.9,55.9,29.57,WSW,245,0.0,0.0,100,0.00,,,0.16,WUHU216DAVISWMX,2013-11-18 13:03:00,
2013-11-18 08:09:00,55.7,55.7,29.57,SE,143,0.0,0.0,100,0.00,,,0.16,WUHU216DAVISWMX,2013-11-18 13:09:00,
2013-11-18 08:15:00,55.6,55.6,29.57,WSW,247,0.0,0.0,100,0.00,,,0.16,WUHU216DAVISWMX,2013-11-18 13:15:00,
2013-11-18 08:21:00,55.5,55.5,29.55,NW,320,0.0,0.0,100,0.00,,,0.16,WUHU216DAVISWMX,2013-11-18 13:21:00,
2013-11-18 08:27:00,55.4,55.4,29.55,SW,232,0.0,0.0,100,0.00,,,0.16,WUHU216DAVISWMX,2013-11-18 13:27:00,
2013-11-18 08:33:00,55.4,55.4,29.57,West,264,0.0,0.0,100,0.00,,,0.16,WUHU216DAVISWMX,2013-11-18 13:33:00,
2013-11-18 08:39:00,55.6,55.6,29.58,West,260,0.0,0.0,100,0.00,,,0.16,WUHU216DAVISWMX,2013-11-18 13:39:00,
2013-11-18 08:44:00,55.6,55.6,29.57,SW,223,0.0,0.0,100,0.00,,,0.16,WUHU216DAVISWMX,2013-11-18 13:44:00,
2013-11-18 08:49:00,55.5,55.5,29.58,SW,236,0.0,0.0,100,0.00,,,0.16,WUHU216DAVISWMX,2013-11-18 13:49:00,
2013-11-18 08:54:00,55.5,55.5,29.58,WSW,254,0.0,0.0,100,0.00,,,0.16,WUHU216DAVISWMX,2013-11-18 13:54:00,
2013-11-18 08:59:00,55.7,55.7,29.58,WSW,237,0.0,0.0,100,0.00,,,0.16,WUHU216DAVISWMX,2013-11-18 13:59:00,
2013-11-18 09:04:00,55.9,55.9,29.58,WSW,252,0.0,1.0,100,0.00,,,0.16,WUHU216DAVISWMX,2013-11-18 14:04:00,
2013-11-18 09:10:00,56.0,56.0,29.58,West,275,0.0,2.0,100,0.00,,,0.16,WUHU216DAVISWMX,2013-11-18 14:10:00,
2013-11-18 09:16:00,56.3,56.3,29.58,SW,220,0.0,1.0,100,0.01,,,0.17,WUHU216DAVISWMX,2013-11-18 14:16:00,
2013-11-18 09:22:00,56.5,56.5,29.59,WSW,243,0.0,1.0,100,0.01,,,0.17,WUHU216DAVISWMX,2013-11-18 14:22:00,
2013-11-18 09:28:00,56.9,56.9,29.58,WNW,285,0.0,4.0,100,0.01,,,0.17,WUHU216DAVISWMX,2013-11-18 14:28:00,
2013-11-18 09:34:00,57.0,57.0,29.59,West,260,0.0,0.0,100,0.01,,,0.17,WUHU216DAVISWMX,2013-11-18 14:34:00,
2013-11-18 09:40:00,57.1,57.1,29.59,WSW,240,0.0,2.0,100,0.01,,,0.17,WUHU216DAVISWMX,2013-11-18 14:40:00,
2013-11-18 09:46:00,57.2,57.2,29.59,SW,217,0.0,1.0,100,0.01,,,0.17,WUHU216DAVISWMX,2013-11-18 14:46:00,
2013-11-18 09:52:00,57.3,57.3,29.59,West,266,0.0,1.0,100,0.01,,,0.17,WUHU216DAVISWMX,2013-11-18 14:52:00,
2013-11-18 09:58:00,57.4,57.1,29.60,West,274,0.0,1.0,99,0.01,,,0.17,WUHU216DAVISWMX,2013-11-18 14:58:00,
2013-11-18 10:04:00,57.5,56.9,29.60,South,191,0.0,7.0,98,0.01,,,0.17,WUHU216DAVISWMX,2013-11-18 15:04:00,
2013-11-18 10:10:00,57.6,56.4,29.60,West,264,0.0,7.0,96,0.01,,,0.17,WUHU216DAVISWMX,2013-11-18 15:10:00,
2013-11-18 10:16:00,57.6,56.1,29.60,North,4,0.0,8.0,95,0.00,,,0.17,WUHU216DAVISWMX,2013-11-18 15:16:00,
2013-11-18 10:22:00,57.8,55.5,29.60,WSW,257,0.0,6.0,92,0.00,,,0.17,WUHU216DAVISWMX,2013-11-18 15:22:00,
2013-11-18 10:28:00,57.8,55.5,29.60,South,191,8.0,8.0,92,0.00,,,0.17,WUHU216DAVISWMX,2013-11-18 15:28:00,
2013-11-18 10:34:00,57.9,55.0,29.60,SW,227,2.0,8.0,90,0.00,,,0.17,WUHU216DAVISWMX,2013-11-18 15:34:00,
2013-11-18 10:40:00,58.1,54.8,29.59,WSW,249,0.0,7.0,89,0.00,,,0.17,WUHU216DAVISWMX,2013-11-18 15:40:00,
2013-11-18 10:46:00,58.3,54.7,29.59,WNW,283,1.0,9.0,88,0.00,,,0.17,WUHU216DAVISWMX,2013-11-18 15:46:00,
2013-11-18 10:52:00,58.5,54.3,29.59,West,279,0.0,8.0,86,0.00,,,0.17,WUHU216DAVISWMX,2013-11-18 15:52:00,
2013-11-18 10:58:00,58.7,54.5,29.59,NW,314,0.0,3.0,86,0.00,,,0.17,WUHU216DAVISWMX,2013-11-18 15:58:00,
2013-11-18 11:04:00,58.8,54.0,29.58,WSW,244,6.0,9.0,84,0.00,,,0.17,WUHU216DAVISWMX,2013-11-18 16:04:00,
2013-11-18 11:10:00,58.7,53.6,29.58,West,259,3.0,6.0,83,0.00,,,0.17,WUHU216DAVISWMX,2013-11-18 16:10:00,
2013-11-18 11:16:00,58.4,53.3,29.58,WSW,257,2.0,6.0,83,0.00,,,0.17,WUHU216DAVISWMX,2013-11-18 16:16:00,
2013-11-18 11:22:00,58.6,53.5,29.58,West,281,0.0,5.0,83,0.00,,,0.17,WUHU216DAVISWMX,2013-11-18 16:22:00,
2013-11-18 11:28:00,58.9,53.4,29.57,WNW,299,0.0,4.0,82,0.00,,,0.17,WUHU216DAVISWMX,2013-11-18 16:28:00,
2013-11-18 11:34:00,59.1,53.6,29.57,NW,323,0.0,0.0,82,0.00,,,0.17,WUHU216DAVISWMX,2013-11-18 16:34:00,
2013-11-18 11:40:00,59.3,53.5,29.57,WNW,300,0.0,0.0,81,0.00,,,0.17,WUHU216DAVISWMX,2013-11-18 16:40:00,
2013-11-18 11:46:00,59.4,53.3,29.57,West,265,0.0,2.0,80,0.00,,,0.17,WUHU216DAVISWMX,2013-11-18 16:46:00,
2013-11-18 11:52:00,59.7,52.9,29.57,WNW,284,0.0,2.0,78,0.00,,,0.17,WUHU216DAVISWMX,2013-11-18 16:52:00,
2013-11-18 11:58:00,59.8,52.3,29.57,West,277,0.0,1.0,76,0.00,,,0.17,WUHU216DAVISWMX,2013-11-18 16:58:00,
2013-11-18 12:03:00,59.8,52.3,29.57,WNW,283,0.0,8.0,76,0.00,,,0.17,WUHU216DAVISWMX,2013-11-18 17:03:00,
2013-11-18 12:08:00,59.8,52.3,29.57,West,266,0.0,8.0,76,0.00,,,0.17,WUHU216DAVISWMX,2013-11-18 17:08:00,
2013-11-18 12:13:00,60.1,53.0,29.57,WNW,299,0.0,1.0,77,0.00,,,0.17,WUHU216DAVISWMX,2013-11-18 17:13:00,
2013-11-18 12:18:00,60.1,51.9,29.57,WSW,251,1.0,4.0,74,0.00,,,0.17,WUHU216DAVISWMX,2013-11-18 17:18:00,
2013-11-18 12:24:00,60.2,51.6,29.57,NNW,334,0.0,7.0,73,0.00,,,0.17,WUHU216DAVISWMX,2013-11-18 17:24:00,
2013-11-18 12:30:00,60.3,51.7,29.57,SW,218,0.0,1.0,73,0.00,,,0.17,WUHU216DAVISWMX,2013-11-18 17:30:00,
2013-11-18 12:36:00,60.4,51.8,29.57,WNW,292,0.0,0.0,73,0.00,,,0.17,WUHU216DAVISWMX,2013-11-18 17:36:00,
2013-11-18 12:42:00,60.4,51.8,29.57,WNW,288,0.0,2.0,73,0.00,,,0.17,WUHU216DAVISWMX,2013-11-18 17:42:00,
2013-11-18 12:48:00,60.6,51.7,29.57,WSW,237,1.0,2.0,72,0.00,,,0.17,WUHU216DAVISWMX,2013-11-18 17:48:00,
2013-11-18 12:54:00,60.7,51.0,29.57,West,279,0.0,8.0,70,0.00,,,0.17,WUHU216DAVISWMX,2013-11-18 17:54:00,
2013-11-18 13:00:00,60.6,50.9,29.57,SSW,210,0.0,4.0,70,0.00,,,0.17,WUHU216DAVISWMX,2013-11-18 18:00:00,
2013-11-18 13:06:00,60.8,51.1,29.57,NW,320,0.0,4.0,70,0.00,,,0.17,WUHU216DAVISWMX,2013-11-18 18:06:00,
2013-11-18 13:12:00,60.8,51.1,29.57,SSW,198,6.0,6.0,70,0.00,,,0.17,WUHU216DAVISWMX,2013-11-18 18:12:00,
2013-11-18 13:18:00,60.8,50.7,29.57,WNW,282,0.0,7.0,69,0.00,,,0.17,WUHU216DAVISWMX,2013-11-18 18:18:00,
2013-11-18 13:24:00,61.0,51.3,29.57,WNW,302,0.0,7.0,70,0.00,,,0.17,WUHU216DAVISWMX,2013-11-18 18:24:00,
2013-11-18 13:30:00,61.0,51.3,29.57,SSW,212,0.0,3.0,70,0.00,,,0.17,WUHU216DAVISWMX,2013-11-18 18:30:00,
2013-11-18 13:36:00,61.0,50.9,29.57,WSW,242,0.0,3.0,69,0.00,,,0.17,WUHU216DAVISWMX,2013-11-18 18:36:00,
2013-11-18 13:42:00,61.0,51.3,29.57,WSW,245,1.0,3.0,70,0.00,,,0.17,WUHU216DAVISWMX,2013-11-18 18:42:00,
2013-11-18 13:48:00,61.0,51.7,29.58,WSW,254,1.0,1.0,71,0.00,,,0.17,WUHU216DAVISWMX,2013-11-18 18:48:00,
2013-11-18 13:54:00,61.0,51.3,29.58,WSW,253,0.0,7.0,70,0.00,,,0.17,WUHU216DAVISWMX,2013-11-18 18:54:00,
2013-11-18 14:00:00,60.9,51.2,29.58,WSW,258,2.0,6.0,70,0.00,,,0.17,WUHU216DAVISWMX,2013-11-18 19:00:00,
2013-11-18 14:06:00,60.9,50.8,29.58,NW,326,2.0,4.0,69,0.00,,,0.17,WUHU216DAVISWMX,2013-11-18 19:06:00,
2013-11-18 14:12:00,61.0,50.9,29.58,WSW,245,1.0,4.0,69,0.00,,,0.17,WUHU216DAVISWMX,2013-11-18 19:12:00,
2013-11-18 14:18:00,60.9,50.8,29.58,WNW,288,0.0,2.0,69,0.00,,,0.17,WUHU216DAVISWMX,2013-11-18 19:18:00,
2013-11-18 14:24:00,60.7,50.6,29.58,SW,218,0.0,4.0,69,0.00,,,0.17,WUHU216DAVISWMX,2013-11-18 19:24:00,
2013-11-18 14:30:00,60.7,50.6,29.58,SW,233,0.0,2.0,69,0.00,,,0.17,WUHU216DAVISWMX,2013-11-18 19:30:00,
2013-11-18 14:36:00,60.6,50.9,29.58,WSW,252,0.0,5.0,70,0.00,,,0.17,WUHU216DAVISWMX,2013-11-18 19:36:00,
2013-11-18 14:42:00,60.5,50.4,29.57,WSW,243,0.0,5.0,69,0.00,,,0.17,WUHU216DAVISWMX,2013-11-18 19:42:00,
2013-11-18 14:48:00,60.5,50.4,29.58,WSW,242,0.0,2.0,69,0.00,,,0.17,WUHU216DAVISWMX,2013-11-18 19:48:00,
2013-11-18 14:54:00,60.5,50.0,29.58,SSW,210,0.0,0.0,68,0.00,,,0.17,WUHU216DAVISWMX,2013-11-18 19:54:00,
2013-11-18 15:00:00,60.5,50.0,29.57,West,261,0.0,1.0,68,0.00,,,0.17,WUHU216DAVISWMX,2013-11-18 20:00:00,
2013-11-18 15:06:00,60.3,49.4,29.57,WSW,246,0.0,2.0,67,0.00,,,0.17,WUHU216DAVISWMX,2013-11-18 20:06:00,
2013-11-18 15:12:00,60.2,49.3,29.57,West,268,0.0,2.0,67,0.00,,,0.17,WUHU216DAVISWMX,2013-11-18 20:12:00,
2013-11-18 15:18:00,60.0,49.9,29.57,SW,224,0.0,1.0,69,0.00,,,0.17,WUHU216DAVISWMX,2013-11-18 20:18:00,
2013-11-18 15:24:00,59.8,49.7,29.57,WSW,252,0.0,0.0,69,0.00,,,0.17,WUHU216DAVISWMX,2013-11-18 20:24:00,
2013-11-18 15:30:00,59.7,50.0,29.57,WSW,249,0.0,1.0,70,0.00,,,0.17,WUHU216DAVISWMX,2013-11-18 20:30:00,
2013-11-18 15:36:00,59.5,49.8,29.57,WSW,249,0.0,0.0,70,0.00,,,0.17,WUHU216DAVISWMX,2013-11-18 20:36:00,
2013-11-18 15:42:00,59.4,50.1,29.57,WSW,255,0.0,0.0,71,0.00,,,0.17,WUHU216DAVISWMX,2013-11-18 20:42:00,
2013-11-18 15:48:00,59.1,49.8,29.57,WSW,249,0.0,0.0,71,0.00,,,0.17,WUHU216DAVISWMX,2013-11-18 20:48:00,
2013-11-18 15:54:00,58.8,49.9,29.57,WSW,250,0.0,0.0,72,0.00,,,0.17,WUHU216DAVISWMX,2013-11-18 20:54:00,
2013-11-18 16:00:00,58.6,49.7,29.57,WSW,249,0.0,0.0,72,0.00,,,0.17,WUHU216DAVISWMX,2013-11-18 21:00:00,
2013-11-18 16:06:00,58.2,49.3,29.57,SW,230,0.0,3.0,72,0.00,,,0.17,WUHU216DAVISWMX,2013-11-18 21:06:00,
2013-11-18 16:12:00,57.9,49.0,29.57,SW,229,0.0,0.0,72,0.00,,,0.17,WUHU216DAVISWMX,2013-11-18 21:12:00,
2013-11-18 16:18:00,57.6,48.8,29.58,SW,228,0.0,0.0,72,0.00,,,0.17,WUHU216DAVISWMX,2013-11-18 21:18:00,
2013-11-18 16:24:00,57.2,49.1,29.58,SW,228,0.0,0.0,74,0.00,,,0.17,WUHU216DAVISWMX,2013-11-18 21:24:00,
2013-11-18 16:30:00,56.8,49.1,29.58,SW,229,0.0,0.0,75,0.00,,,0.17,WUHU216DAVISWMX,2013-11-18 21:30:00,
2013-11-18 16:36:00,56.3,48.9,29.59,SW,228,0.0,0.0,76,0.00,,,0.17,WUHU216DAVISWMX,2013-11-18 21:36:00,
2013-11-18 16:42:00,55.7,49.0,29.59,SW,228,0.0,0.0,78,0.00,,,0.17,WUHU216DAVISWMX,2013-11-18 21:42:00,
2013-11-18 16:47:00,55.2,48.9,29.59,SW,228,0.0,0.0,79,0.00,,,0.17,WUHU216DAVISWMX,2013-11-18 21:47:00,
2013-11-18 16:53:00,54.9,48.9,29.60,SW,228,0.0,0.0,80,0.00,,,0.17,WUHU216DAVISWMX,2013-11-18 21:53:00,
2013-11-18 16:59:00,54.4,48.7,29.60,SW,228,0.0,0.0,81,0.00,,,0.17,WUHU216DAVISWMX,2013-11-18 21:59:00,
2013-11-18 17:05:00,54.0,48.3,29.60,SW,228,0.0,0.0,81,0.00,,,0.17,WUHU216DAVISWMX,2013-11-18 22:05:00,
2013-11-18 17:11:00,53.6,48.6,29.60,SW,228,0.0,0.0,83,0.00,,,0.17,WUHU216DAVISWMX,2013-11-18 22:11:00,
2013-11-18 17:17:00,53.2,48.5,29.61,SW,228,0.0,0.0,84,0.00,,,0.17,WUHU216DAVISWMX,2013-11-18 22:17:00,
2013-11-18 17:23:00,52.8,48.1,29.60,SW,228,0.0,0.0,84,0.00,,,0.17,WUHU216DAVISWMX,2013-11-18 22:23:00,
2013-11-18 17:29:00,52.3,47.9,29.60,SW,228,0.0,0.0,85,0.00,,,0.17,WUHU216DAVISWMX,2013-11-18 22:29:00,
2013-11-18 17:35:00,51.9,47.8,29.61,SW,228,0.0,0.0,86,0.00,,,0.17,WUHU216DAVISWMX,2013-11-18 22:35:00,
2013-11-18 17:41:00,51.6,47.8,29.61,SW,229,0.0,0.0,87,0.00,,,0.17,WUHU216DAVISWMX,2013-11-18 22:41:00,
2013-11-18 17:47:00,51.2,47.4,29.61,SW,228,0.0,0.0,87,0.00,,,0.17,WUHU216DAVISWMX,2013-11-18 22:47:00,
2013-11-18 17:53:00,50.9,47.4,29.61,SW,228,0.0,0.0,88,0.00,,,0.17,WUHU216DAVISWMX,2013-11-18 22:53:00,
2013-11-18 17:59:00,50.5,47.1,29.61,SW,228,0.0,0.0,88,0.00,,,0.17,WUHU216DAVISWMX,2013-11-18 22:59:00,
2013-11-18 18:05:00,50.3,47.1,29.61,SW,228,0.0,0.0,89,0.00,,,0.17,WUHU216DAVISWMX,2013-11-18 23:05:00,
2013-11-18 18:11:00,49.9,46.8,29.61,SW,228,0.0,0.0,89,0.00,,,0.17,WUHU216DAVISWMX,2013-11-18 23:11:00,
2013-11-18 18:17:00,49.6,46.7,29.61,SW,228,0.0,0.0,90,0.00,,,0.17,WUHU216DAVISWMX,2013-11-18 23:17:00,
2013-11-18 18:23:00,49.4,46.6,29.61,SW,228,0.0,0.0,90,0.00,,,0.17,WUHU216DAVISWMX,2013-11-18 23:23:00,
2013-11-18 18:29:00,49.0,46.2,29.62,SW,228,0.0,0.0,90,0.00,,,0.17,WUHU216DAVISWMX,2013-11-18 23:29:00,
2013-11-18 18:34:00,48.6,46.1,29.62,SW,228,0.0,0.0,91,0.00,,,0.17,WUHU216DAVISWMX,2013-11-18 23:34:00,
2013-11-18 18:40:00,48.3,45.8,29.61,SW,229,0.0,0.0,91,0.00,,,0.17,WUHU216DAVISWMX,2013-11-18 23:40:00,
2013-11-18 18:46:00,48.0,45.5,29.61,SW,228,0.0,0.0,91,0.00,,,0.17,WUHU216DAVISWMX,2013-11-18 23:46:00,
2013-11-18 18:52:00,47.7,45.4,29.62,SW,228,0.0,0.0,92,0.00,,,0.17,WUHU216DAVISWMX,2013-11-18 23:52:00,
2013-11-18 18:58:00,47.5,45.2,29.62,SW,230,0.0,0.0,92,0.00,,,0.17,WUHU216DAVISWMX,2013-11-18 23:58:00,
2013-11-18 19:04:00,47.1,45.4,29.63,NW,318,0.0,0.0,94,0.00,,,0.17,WUHU216DAVISWMX,2013-11-19 00:04:00,
2013-11-18 19:10:00,47.2,45.5,29.63,NW,318,0.0,0.0,94,0.00,,,0.17,WUHU216DAVISWMX,2013-11-19 00:10:00,
2013-11-18 19:16:00,47.1,45.4,29.63,NW,318,0.0,0.0,94,0.00,,,0.17,WUHU216DAVISWMX,2013-11-19 00:16:00,
2013-11-18 19:22:00,47.0,45.3,29.63,NW,318,0.0,0.0,94,0.00,,,0.17,WUHU216DAVISWMX,2013-11-19 00:22:00,
2013-11-18 19:28:00,46.8,45.1,29.63,NW,318,0.0,0.0,94,0.00,,,0.17,WUHU216DAVISWMX,2013-11-19 00:28:00,
2013-11-18 19:34:00,46.6,44.9,29.63,NW,318,0.0,0.0,94,0.00,,,0.17,WUHU216DAVISWMX,2013-11-19 00:34:00,
2013-11-18 19:40:00,46.3,44.6,29.63,NW,318,0.0,0.0,94,0.00,,,0.17,WUHU216DAVISWMX,2013-11-19 00:40:00,
2013-11-18 19:46:00,46.1,44.4,29.63,NW,318,0.0,0.0,94,0.00,,,0.17,WUHU216DAVISWMX,2013-11-19 00:46:00,
2013-11-18 19:52:00,45.8,44.4,29.63,NW,318,0.0,0.0,95,0.00,,,0.17,WUHU216DAVISWMX,2013-11-19 00:52:00,
2013-11-18 19:58:00,45.7,44.3,29.63,NW,318,0.0,0.0,95,0.00,,,0.17,WUHU216DAVISWMX,2013-11-19 00:58:00,
2013-11-18 20:04:00,45.5,44.4,29.63,NW,318,0.0,0.0,96,0.00,,,0.17,WUHU216DAVISWMX,2013-11-19 01:04:00,
2013-11-18 20:10:00,45.3,44.2,29.63,NW,318,0.0,0.0,96,0.00,,,0.17,WUHU216DAVISWMX,2013-11-19 01:10:00,
2013-11-18 20:16:00,45.1,44.3,29.64,NW,318,0.0,0.0,97,0.00,,,0.17,WUHU216DAVISWMX,2013-11-19 01:16:00,
2013-11-18 20:22:00,44.8,44.0,29.64,NW,318,0.0,0.0,97,0.00,,,0.17,WUHU216DAVISWMX,2013-11-19 01:22:00,
2013-11-18 20:28:00,44.9,43.8,29.64,NW,318,0.0,0.0,96,0.00,,,0.17,WUHU216DAVISWMX,2013-11-19 01:28:00,
2013-11-18 20:34:00,45.2,44.1,29.65,NW,318,0.0,0.0,96,0.00,,,0.17,WUHU216DAVISWMX,2013-11-19 01:34:00,
2013-11-18 20:40:00,45.6,43.9,29.65,NW,318,0.0,0.0,94,0.00,,,0.17,WUHU216DAVISWMX,2013-11-19 01:40:00,
2013-11-18 20:46:00,46.3,44.3,29.65,WNW,302,0.0,1.0,93,0.00,,,0.17,WUHU216DAVISWMX,2013-11-19 01:46:00,
2013-11-18 20:52:00,47.5,44.4,29.66,NW,315,0.0,2.0,89,0.00,,,0.17,WUHU216DAVISWMX,2013-11-19 01:52:00,
2013-11-18 20:58:00,48.4,44.4,29.67,NW,318,0.0,6.0,86,0.00,,,0.17,WUHU216DAVISWMX,2013-11-19 01:58:00,
2013-11-18 21:04:00,48.5,43.9,29.67,WNW,285,0.0,4.0,84,0.00,,,0.17,WUHU216DAVISWMX,2013-11-19 02:04:00,
2013-11-18 21:10:00,48.7,43.5,29.67,NNW,327,0.0,4.0,82,0.00,,,0.17,WUHU216DAVISWMX,2013-11-19 02:10:00,
2013-11-18 21:15:00,48.7,42.8,29.67,West,277,0.0,4.0,80,0.00,,,0.17,WUHU216DAVISWMX,2013-11-19 02:15:00,
2013-11-18 21:20:00,48.7,42.5,29.67,NW,304,0.0,2.0,79,0.00,,,0.17,WUHU216DAVISWMX,2013-11-19 02:20:00,
2013-11-18 21:25:00,48.6,41.8,29.67,NW,312,0.0,5.0,77,0.00,,,0.17,WUHU216DAVISWMX,2013-11-19 02:25:00,
2013-11-18 21:30:00,48.5,41.7,29.67,WNW,290,0.0,5.0,77,0.00,,,0.17,WUHU216DAVISWMX,2013-11-19 02:30:00,
2013-11-18 21:35:00,48.3,41.5,29.68,WNW,287,0.0,1.0,77,0.00,,,0.17,WUHU216DAVISWMX,2013-11-19 02:35:00,
2013-11-18 21:40:00,48.2,41.1,29.67,NW,315,0.0,0.0,76,0.00,,,0.17,WUHU216DAVISWMX,2013-11-19 02:40:00,
2013-11-18 21:46:00,47.9,40.8,29.68,West,267,0.0,0.0,76,0.00,,,0.17,WUHU216DAVISWMX,2013-11-19 02:46:00,
2013-11-18 21:52:00,47.7,40.6,29.67,NW,319,0.0,2.0,76,0.00,,,0.17,WUHU216DAVISWMX,2013-11-19 02:52:00,
2013-11-18 21:58:00,47.6,40.1,29.67,NW,323,0.0,4.0,75,0.00,,,0.17,WUHU216DAVISWMX,2013-11-19 02:58:00,
2013-11-18 22:03:00,47.6,40.1,29.67,West,264,0.0,2.0,75,0.00,,,0.17,WUHU216DAVISWMX,2013-11-19 03:03:00,
2013-11-18 22:08:00,47.5,40.0,29.68,NW,320,1.0,2.0,75,0.00,,,0.17,WUHU216DAVISWMX,2013-11-19 03:08:00,
2013-11-18 22:14:00,47.3,39.8,29.68,NW,316,0.0,2.0,75,0.00,,,0.17,WUHU216DAVISWMX,2013-11-19 03:14:00,
2013-11-18 22:20:00,47.4,39.9,29.67,West,260,0.0,3.0,75,0.00,,,0.17,WUHU216DAVISWMX,2013-11-19 03:20:00,
2013-11-18 22:26:00,47.5,40.0,29.68,NW,326,0.0,5.0,75,0.00,,,0.17,WUHU216DAVISWMX,2013-11-19 03:26:00,
2013-11-18 22:32:00,47.6,39.8,29.68,NW,322,0.0,5.0,74,0.00,,,0.17,WUHU216DAVISWMX,2013-11-19 03:32:00,
2013-11-18 22:38:00,47.6,39.8,29.68,NW,323,0.0,0.0,74,0.00,,,0.17,WUHU216DAVISWMX,2013-11-19 03:38:00,
2013-11-18 22:44:00,47.6,39.8,29.68,NW,317,0.0,0.0,74,0.00,,,0.17,WUHU216DAVISWMX,2013-11-19 03:44:00,
2013-11-18 22:50:00,47.6,39.8,29.68,NW,315,0.0,0.0,74,0.00,,,0.17,WUHU216DAVISWMX,2013-11-19 03:50:00,
2013-11-18 22:56:00,47.6,39.1,29.69,WNW,294,0.0,2.0,72,0.00,,,0.17,WUHU216DAVISWMX,2013-11-19 03:56:00,
2013-11-18 23:02:00,47.5,39.4,29.69,WNW,287,0.0,0.0,73,0.00,,,0.17,WUHU216DAVISWMX,2013-11-19 04:02:00,
2013-11-18 23:08:00,47.4,39.3,29.69,NNW,328,0.0,1.0,73,0.00,,,0.17,WUHU216DAVISWMX,2013-11-19 04:08:00,
2013-11-18 23:14:00,47.2,38.7,29.69,NNW,327,0.0,1.0,72,0.00,,,0.17,WUHU216DAVISWMX,2013-11-19 04:14:00,
2013-11-18 23:20:00,47.0,38.5,29.70,NW,309,0.0,0.0,72,0.00,,,0.17,WUHU216DAVISWMX,2013-11-19 04:20:00,
2013-11-18 23:26:00,46.8,38.3,29.70,NW,319,2.0,2.0,72,0.00,,,0.17,WUHU216DAVISWMX,2013-11-19 04:26:00,
2013-11-18 23:32:00,46.8,38.3,29.70,SW,236,0.0,2.0,72,0.00,,,0.17,WUHU216DAVISWMX,2013-11-19 04:32:00,
2013-11-18 23:37:00,46.5,38.0,29.70,NW,308,0.0,2.0,72,0.00,,,0.17,WUHU216DAVISWMX,2013-11-19 04:37:00,
2013-11-18 23:42:00,46.5,37.7,29.70,SSW,203,1.0,5.0,71,0.00,,,0.17,WUHU216DAVISWMX,2013-11-19 04:42:00,
2013-11-18 23:47:00,46.5,37.7,29.70,WSW,248,0.0,5.0,71,0.00,,,0.17,WUHU216DAVISWMX,2013-11-19 04:47:00,
2013-11-18 23:53:00,46.4,37.9,29.70,WNW,292,0.0,2.0,72,0.00,,,0.17,WUHU216DAVISWMX,2013-11-19 04:53:00,
2013-11-18 23:59:00,46.3,37.9,29.70,NW,316,3.0,3.0,72,0.00,,,0.17,WUHU216DAVISWMX,2013-11-19 04:59:00,